sensor_id;sensor_type;location;lat;lon;timestamp;temperature;humidity
11559;DHT22;5835;42.930;25.178;2023-09-19T00:01:44;12.80;99.90
11559;DHT22;5835;42.930;25.178;2023-09-19T00:04:12;12.80;99.90
11559;DHT22;5835;42.930;25.178;2023-09-19T00:06:40;12.80;99.90
11559;DHT22;5835;42.930;25.178;2023-09-19T00:09:09;12.80;99.90
11559;DHT22;5835;42.930;25.178;2023-09-19T00:11:36;12.70;99.90
11559;DHT22;5835;42.930;25.178;2023-09-19T00:14:04;12.80;99.90
11559;DHT22;5835;42.930;25.178;2023-09-19T00:16:34;12.80;99.90
11559;DHT22;5835;42.930;25.178;2023-09-19T00:19:02;12.80;99.90
11559;DHT22;5835;42.930;25.178;2023-09-19T00:21:31;12.90;99.90
11559;DHT22;5835;42.930;25.178;2023-09-19T00:23:58;12.90;99.90
11559;DHT22;5835;42.930;25.178;2023-09-19T00:26:25;12.80;99.90
11559;DHT22;5835;42.930;25.178;2023-09-19T00:28:52;12.70;99.90
11559;DHT22;5835;42.930;25.178;2023-09-19T00:31:19;12.70;99.90
11559;DHT22;5835;42.930;25.178;2023-09-19T00:33:51;12.70;99.90
11559;DHT22;5835;42.930;25.178;2023-09-19T00:36:19;12.90;99.90
11559;DHT22;5835;42.930;25.178;2023-09-19T00:38:46;12.80;99.90
11559;DHT22;5835;42.930;25.178;2023-09-19T00:41:13;12.50;99.90
11559;DHT22;5835;42.930;25.178;2023-09-19T00:43:41;12.40;99.90
11559;DHT22;5835;42.930;25.178;2023-09-19T00:46:08;12.40;99.90
11559;DHT22;5835;42.930;25.178;2023-09-19T00:48:40;12.50;99.90
11559;DHT22;5835;42.930;25.178;2023-09-19T00:51:09;12.60;99.90
11559;DHT22;5835;42.930;25.178;2023-09-19T00:53:38;12.80;99.90
11559;DHT22;5835;42.930;25.178;2023-09-19T00:56:06;12.90;99.90
11559;DHT22;5835;42.930;25.178;2023-09-19T00:58:33;12.90;99.90
11559;DHT22;5835;42.930;25.178;2023-09-19T01:01:02;12.50;99.90
11559;DHT22;5835;42.930;25.178;2023-09-19T01:03:32;12.30;99.90
11559;DHT22;5835;42.930;25.178;2023-09-19T01:06:00;12.40;99.90
11559;DHT22;5835;42.930;25.178;2023-09-19T01:08:27;12.60;99.90
11559;DHT22;5835;42.930;25.178;2023-09-19T01:11:01;12.60;99.90
11559;DHT22;5835;42.930;25.178;2023-09-19T01:13:38;12.60;99.90
11559;DHT22;5835;42.930;25.178;2023-09-19T01:16:16;12.60;99.90
11559;DHT22;5835;42.930;25.178;2023-09-19T01:18:52;12.60;99.90
11559;DHT22;5835;42.930;25.178;2023-09-19T01:21:27;12.50;99.90
11559;DHT22;5835;42.930;25.178;2023-09-19T01:24:30;12.50;99.90
11559;DHT22;5835;42.930;25.178;2023-09-19T01:27:24;12.40;99.90
11559;DHT22;5835;42.930;25.178;2023-09-19T01:30:01;12.50;99.90
11559;DHT22;5835;42.930;25.178;2023-09-19T01:32:29;12.40;99.90
11559;DHT22;5835;42.930;25.178;2023-09-19T01:34:58;12.40;99.90
11559;DHT22;5835;42.930;25.178;2023-09-19T01:37:30;12.40;99.90
11559;DHT22;5835;42.930;25.178;2023-09-19T01:40:00;12.50;99.90
11559;DHT22;5835;42.930;25.178;2023-09-19T01:42:48;12.40;99.90
11559;DHT22;5835;42.930;25.178;2023-09-19T01:45:28;12.40;99.90
11559;DHT22;5835;42.930;25.178;2023-09-19T01:48:05;12.40;99.90
11559;DHT22;5835;42.930;25.178;2023-09-19T01:50:44;12.40;99.90
11559;DHT22;5835;42.930;25.178;2023-09-19T01:53:19;12.10;99.90
11559;DHT22;5835;42.930;25.178;2023-09-19T01:55:50;12.00;99.90
11559;DHT22;5835;42.930;25.178;2023-09-19T01:58:21;12.10;99.90
11559;DHT22;5835;42.930;25.178;2023-09-19T02:00:55;12.20;99.90
11559;DHT22;5835;42.930;25.178;2023-09-19T02:03:23;12.20;99.90
11559;DHT22;5835;42.930;25.178;2023-09-19T02:05:51;12.00;99.90
11559;DHT22;5835;42.930;25.178;2023-09-19T02:08:20;11.80;99.90
11559;DHT22;5835;42.930;25.178;2023-09-19T02:10:49;11.60;99.90
11559;DHT22;5835;42.930;25.178;2023-09-19T02:13:17;11.60;99.90
11559;DHT22;5835;42.930;25.178;2023-09-19T02:15:45;11.40;99.90
11559;DHT22;5835;42.930;25.178;2023-09-19T02:18:13;11.30;99.90
11559;DHT22;5835;42.930;25.178;2023-09-19T02:20:41;11.20;99.90
11559;DHT22;5835;42.930;25.178;2023-09-19T02:23:08;11.20;99.90
11559;DHT22;5835;42.930;25.178;2023-09-19T02:25:35;11.30;99.90
11559;DHT22;5835;42.930;25.178;2023-09-19T02:28:04;11.30;99.90
11559;DHT22;5835;42.930;25.178;2023-09-19T02:30:32;11.20;99.90
11559;DHT22;5835;42.930;25.178;2023-09-19T02:33:00;11.10;99.90
11559;DHT22;5835;42.930;25.178;2023-09-19T02:35:32;11.20;99.90
11559;DHT22;5835;42.930;25.178;2023-09-19T02:38:04;11.20;99.90
11559;DHT22;5835;42.930;25.178;2023-09-19T02:40:33;11.30;99.90
11559;DHT22;5835;42.930;25.178;2023-09-19T02:43:02;11.30;99.90
11559;DHT22;5835;42.930;25.178;2023-09-19T02:45:29;11.30;99.90
11559;DHT22;5835;42.930;25.178;2023-09-19T02:47:57;11.50;99.90
11559;DHT22;5835;42.930;25.178;2023-09-19T02:50:24;11.60;99.90
11559;DHT22;5835;42.930;25.178;2023-09-19T02:52:52;11.50;99.90
11559;DHT22;5835;42.930;25.178;2023-09-19T02:55:20;11.40;99.90
11559;DHT22;5835;42.930;25.178;2023-09-19T02:57:48;11.30;99.90
11559;DHT22;5835;42.930;25.178;2023-09-19T03:00:16;11.30;99.90
11559;DHT22;5835;42.930;25.178;2023-09-19T03:02:42;11.20;99.90
11559;DHT22;5835;42.930;25.178;2023-09-19T03:05:12;11.20;99.90
11559;DHT22;5835;42.930;25.178;2023-09-19T03:07:40;11.30;99.90
11559;DHT22;5835;42.930;25.178;2023-09-19T03:10:10;11.30;99.90
11559;DHT22;5835;42.930;25.178;2023-09-19T03:12:37;11.30;99.90
11559;DHT22;5835;42.930;25.178;2023-09-19T03:15:06;11.40;99.90
11559;DHT22;5835;42.930;25.178;2023-09-19T03:17:34;11.40;99.90
11559;DHT22;5835;42.930;25.178;2023-09-19T03:20:02;11.30;99.90
11559;DHT22;5835;42.930;25.178;2023-09-19T03:22:30;11.20;99.90
11559;DHT22;5835;42.930;25.178;2023-09-19T03:24:59;11.00;99.90
11559;DHT22;5835;42.930;25.178;2023-09-19T03:27:27;11.20;99.90
11559;DHT22;5835;42.930;25.178;2023-09-19T03:29:54;11.30;99.90
11559;DHT22;5835;42.930;25.178;2023-09-19T03:32:21;11.20;99.90
11559;DHT22;5835;42.930;25.178;2023-09-19T03:34:48;11.10;99.90
11559;DHT22;5835;42.930;25.178;2023-09-19T03:37:15;11.10;99.90
11559;DHT22;5835;42.930;25.178;2023-09-19T03:39:43;11.20;99.90
11559;DHT22;5835;42.930;25.178;2023-09-19T03:42:10;11.10;99.90
11559;DHT22;5835;42.930;25.178;2023-09-19T03:44:38;11.10;99.90
11559;DHT22;5835;42.930;25.178;2023-09-19T03:47:05;11.00;99.90
11559;DHT22;5835;42.930;25.178;2023-09-19T03:49:33;11.00;99.90
11559;DHT22;5835;42.930;25.178;2023-09-19T03:52:00;11.10;99.90
11559;DHT22;5835;42.930;25.178;2023-09-19T03:54:27;11.30;99.90
11559;DHT22;5835;42.930;25.178;2023-09-19T03:56:54;11.50;99.90
11559;DHT22;5835;42.930;25.178;2023-09-19T03:59:21;11.30;99.90
11559;DHT22;5835;42.930;25.178;2023-09-19T04:01:50;11.30;99.90
11559;DHT22;5835;42.930;25.178;2023-09-19T04:04:21;11.40;99.90
11559;DHT22;5835;42.930;25.178;2023-09-19T04:06:50;11.30;99.90
11559;DHT22;5835;42.930;25.178;2023-09-19T04:09:18;11.20;99.90
11559;DHT22;5835;42.930;25.178;2023-09-19T04:11:45;11.10;99.90
11559;DHT22;5835;42.930;25.178;2023-09-19T04:14:12;11.10;99.90
11559;DHT22;5835;42.930;25.178;2023-09-19T04:16:39;11.00;99.90
11559;DHT22;5835;42.930;25.178;2023-09-19T04:19:07;11.10;99.90
11559;DHT22;5835;42.930;25.178;2023-09-19T04:21:34;11.10;99.90
11559;DHT22;5835;42.930;25.178;2023-09-19T04:24:01;11.10;99.90
11559;DHT22;5835;42.930;25.178;2023-09-19T04:26:29;11.10;99.90
11559;DHT22;5835;42.930;25.178;2023-09-19T04:28:56;11.30;99.90
11559;DHT22;5835;42.930;25.178;2023-09-19T04:31:23;11.30;99.90
11559;DHT22;5835;42.930;25.178;2023-09-19T04:33:50;11.40;99.90
11559;DHT22;5835;42.930;25.178;2023-09-19T04:36:18;11.50;99.90
11559;DHT22;5835;42.930;25.178;2023-09-19T04:38:47;11.70;99.90
11559;DHT22;5835;42.930;25.178;2023-09-19T04:41:14;11.80;99.90
11559;DHT22;5835;42.930;25.178;2023-09-19T04:43:41;11.90;99.90
11559;DHT22;5835;42.930;25.178;2023-09-19T04:46:08;12.10;99.90
11559;DHT22;5835;42.930;25.178;2023-09-19T04:48:35;12.10;99.90
11559;DHT22;5835;42.930;25.178;2023-09-19T04:51:03;12.10;99.90
11559;DHT22;5835;42.930;25.178;2023-09-19T04:53:30;12.00;99.90
11559;DHT22;5835;42.930;25.178;2023-09-19T04:55:57;11.80;99.90
11559;DHT22;5835;42.930;25.178;2023-09-19T04:58:24;11.80;99.90
11559;DHT22;5835;42.930;25.178;2023-09-19T05:00:51;12.00;99.90
11559;DHT22;5835;42.930;25.178;2023-09-19T05:03:18;12.30;99.90
11559;DHT22;5835;42.930;25.178;2023-09-19T05:05:46;12.40;99.90
11559;DHT22;5835;42.930;25.178;2023-09-19T05:08:13;12.40;99.90
11559;DHT22;5835;42.930;25.178;2023-09-19T05:10:45;12.80;99.90
11559;DHT22;5835;42.930;25.178;2023-09-19T05:13:12;12.80;99.90
11559;DHT22;5835;42.930;25.178;2023-09-19T05:15:39;12.40;99.90
11559;DHT22;5835;42.930;25.178;2023-09-19T05:18:06;11.90;99.90
11559;DHT22;5835;42.930;25.178;2023-09-19T05:20:33;11.80;99.90
11559;DHT22;5835;42.930;25.178;2023-09-19T05:23:03;11.70;99.90
11559;DHT22;5835;42.930;25.178;2023-09-19T05:25:33;11.70;99.90
11559;DHT22;5835;42.930;25.178;2023-09-19T05:28:05;11.60;99.90
11559;DHT22;5835;42.930;25.178;2023-09-19T05:30:33;11.70;99.90
11559;DHT22;5835;42.930;25.178;2023-09-19T05:33:02;11.80;99.90
11559;DHT22;5835;42.930;25.178;2023-09-19T05:35:30;12.00;99.90
11559;DHT22;5835;42.930;25.178;2023-09-19T05:37:58;12.10;99.90
11559;DHT22;5835;42.930;25.178;2023-09-19T05:40:25;12.10;99.90
11559;DHT22;5835;42.930;25.178;2023-09-19T05:42:53;12.20;99.90
11559;DHT22;5835;42.930;25.178;2023-09-19T05:45:21;12.20;99.90
11559;DHT22;5835;42.930;25.178;2023-09-19T05:47:48;12.30;99.90
11559;DHT22;5835;42.930;25.178;2023-09-19T05:50:16;12.40;99.90
11559;DHT22;5835;42.930;25.178;2023-09-19T05:52:50;12.40;99.90
11559;DHT22;5835;42.930;25.178;2023-09-19T05:55:18;12.50;99.90
11559;DHT22;5835;42.930;25.178;2023-09-19T05:57:49;12.60;99.90
11559;DHT22;5835;42.930;25.178;2023-09-19T06:00:18;12.70;99.90
11559;DHT22;5835;42.930;25.178;2023-09-19T06:02:51;12.80;99.90
11559;DHT22;5835;42.930;25.178;2023-09-19T06:05:18;13.00;99.90
11559;DHT22;5835;42.930;25.178;2023-09-19T06:07:45;13.10;99.90
11559;DHT22;5835;42.930;25.178;2023-09-19T06:10:13;13.10;99.90
11559;DHT22;5835;42.930;25.178;2023-09-19T06:12:40;13.10;99.90
11559;DHT22;5835;42.930;25.178;2023-09-19T06:15:10;13.10;99.90
11559;DHT22;5835;42.930;25.178;2023-09-19T06:17:41;13.10;99.90
11559;DHT22;5835;42.930;25.178;2023-09-19T06:20:10;13.40;99.90
11559;DHT22;5835;42.930;25.178;2023-09-19T06:22:41;13.50;99.90
11559;DHT22;5835;42.930;25.178;2023-09-19T06:25:09;13.80;99.90
11559;DHT22;5835;42.930;25.178;2023-09-19T06:27:41;14.10;99.90
11559;DHT22;5835;42.930;25.178;2023-09-19T06:30:10;14.20;99.90
11559;DHT22;5835;42.930;25.178;2023-09-19T06:32:38;14.40;99.90
11559;DHT22;5835;42.930;25.178;2023-09-19T06:35:06;14.50;99.90
11559;DHT22;5835;42.930;25.178;2023-09-19T06:37:35;14.70;99.90
11559;DHT22;5835;42.930;25.178;2023-09-19T06:40:06;14.90;99.90
11559;DHT22;5835;42.930;25.178;2023-09-19T06:42:34;15.00;99.90
11559;DHT22;5835;42.930;25.178;2023-09-19T06:45:04;15.10;99.90
11559;DHT22;5835;42.930;25.178;2023-09-19T06:47:31;15.20;99.90
11559;DHT22;5835;42.930;25.178;2023-09-19T06:49:58;15.20;99.90
11559;DHT22;5835;42.930;25.178;2023-09-19T06:52:28;15.40;99.90
11559;DHT22;5835;42.930;25.178;2023-09-19T06:54:56;15.60;99.90
11559;DHT22;5835;42.930;25.178;2023-09-19T06:57:23;15.80;99.90
11559;DHT22;5835;42.930;25.178;2023-09-19T06:59:50;16.20;99.90
11559;DHT22;5835;42.930;25.178;2023-09-19T07:02:17;16.20;99.90
11559;DHT22;5835;42.930;25.178;2023-09-19T07:04:45;16.40;58.50
11559;DHT22;5835;42.930;25.178;2023-09-19T07:07:13;16.60;25.00
11559;DHT22;5835;42.930;25.178;2023-09-19T07:09:40;16.80;1.00
11559;DHT22;5835;42.930;25.178;2023-09-19T07:12:09;16.90;1.00
11559;DHT22;5835;42.930;25.178;2023-09-19T07:14:36;17.30;1.00
11559;DHT22;5835;42.930;25.178;2023-09-19T07:17:03;17.40;48.40
11559;DHT22;5835;42.930;25.178;2023-09-19T07:19:30;17.60;99.90
11559;DHT22;5835;42.930;25.178;2023-09-19T07:21:57;17.80;1.00
11559;DHT22;5835;42.930;25.178;2023-09-19T07:24:28;18.00;99.90
11559;DHT22;5835;42.930;25.178;2023-09-19T07:26:55;18.30;99.90
11559;DHT22;5835;42.930;25.178;2023-09-19T07:29:23;18.40;99.90
11559;DHT22;5835;42.930;25.178;2023-09-19T07:31:50;18.60;99.90
11559;DHT22;5835;42.930;25.178;2023-09-19T07:34:17;18.70;99.90
11559;DHT22;5835;42.930;25.178;2023-09-19T07:36:44;18.90;99.90
11559;DHT22;5835;42.930;25.178;2023-09-19T07:39:13;19.00;61.40
11559;DHT22;5835;42.930;25.178;2023-09-19T07:41:40;19.00;1.00
11559;DHT22;5835;42.930;25.178;2023-09-19T07:44:08;19.20;99.90
11559;DHT22;5835;42.930;25.178;2023-09-19T07:46:37;19.30;99.90
11559;DHT22;5835;42.930;25.178;2023-09-19T07:49:04;19.40;91.20
11559;DHT22;5835;42.930;25.178;2023-09-19T07:51:32;19.60;1.00
11559;DHT22;5835;42.930;25.178;2023-09-19T07:53:59;19.80;1.00
11559;DHT22;5835;42.930;25.178;2023-09-19T07:56:26;19.90;1.00
11559;DHT22;5835;42.930;25.178;2023-09-19T07:58:54;20.00;1.00
11559;DHT22;5835;42.930;25.178;2023-09-19T08:01:21;20.30;1.00
11559;DHT22;5835;42.930;25.178;2023-09-19T08:03:51;20.50;1.00
11559;DHT22;5835;42.930;25.178;2023-09-19T08:06:18;20.60;99.90
11559;DHT22;5835;42.930;25.178;2023-09-19T08:08:46;20.80;99.90
11559;DHT22;5835;42.930;25.178;2023-09-19T08:11:15;21.00;99.90
11559;DHT22;5835;42.930;25.178;2023-09-19T08:13:47;21.10;55.00
11559;DHT22;5835;42.930;25.178;2023-09-19T08:16:15;21.60;25.70
11559;DHT22;5835;42.930;25.178;2023-09-19T08:18:42;21.60;7.10
11559;DHT22;5835;42.930;25.178;2023-09-19T08:21:12;21.70;1.00
11559;DHT22;5835;42.930;25.178;2023-09-19T08:23:41;22.00;1.00
11559;DHT22;5835;42.930;25.178;2023-09-19T08:26:09;22.00;1.00
11559;DHT22;5835;42.930;25.178;2023-09-19T08:28:38;22.40;1.00
11559;DHT22;5835;42.930;25.178;2023-09-19T08:31:07;22.60;1.00
11559;DHT22;5835;42.930;25.178;2023-09-19T08:33:35;22.80;1.00
11559;DHT22;5835;42.930;25.178;2023-09-19T08:36:03;23.10;1.00
11559;DHT22;5835;42.930;25.178;2023-09-19T08:38:31;23.30;1.00
11559;DHT22;5835;42.930;25.178;2023-09-19T08:40:59;23.40;1.00
11559;DHT22;5835;42.930;25.178;2023-09-19T08:43:26;23.40;1.00
11559;DHT22;5835;42.930;25.178;2023-09-19T08:45:58;23.50;1.00
11559;DHT22;5835;42.930;25.178;2023-09-19T08:48:30;23.70;1.00
11559;DHT22;5835;42.930;25.178;2023-09-19T08:51:02;23.80;1.00
11559;DHT22;5835;42.930;25.178;2023-09-19T08:53:42;24.00;1.00
11559;DHT22;5835;42.930;25.178;2023-09-19T08:56:14;23.90;1.00
11559;DHT22;5835;42.930;25.178;2023-09-19T08:58:46;23.90;1.00
11559;DHT22;5835;42.930;25.178;2023-09-19T09:01:15;23.90;1.00
11559;DHT22;5835;42.930;25.178;2023-09-19T09:03:43;24.20;1.00
11559;DHT22;5835;42.930;25.178;2023-09-19T09:06:14;24.70;1.00
11559;DHT22;5835;42.930;25.178;2023-09-19T09:08:43;24.50;1.00
11559;DHT22;5835;42.930;25.178;2023-09-19T09:11:15;24.60;1.00
11559;DHT22;5835;42.930;25.178;2023-09-19T09:13:43;24.60;1.00
11559;DHT22;5835;42.930;25.178;2023-09-19T09:16:11;24.90;1.00
11559;DHT22;5835;42.930;25.178;2023-09-19T09:18:38;25.10;1.00
11559;DHT22;5835;42.930;25.178;2023-09-19T09:21:05;24.90;1.00
11559;DHT22;5835;42.930;25.178;2023-09-19T09:23:33;25.00;1.00
11559;DHT22;5835;42.930;25.178;2023-09-19T09:26:01;25.00;1.00
11559;DHT22;5835;42.930;25.178;2023-09-19T09:28:30;25.30;1.00
11559;DHT22;5835;42.930;25.178;2023-09-19T09:30:59;25.70;1.00
11559;DHT22;5835;42.930;25.178;2023-09-19T09:33:28;25.60;1.00
11559;DHT22;5835;42.930;25.178;2023-09-19T09:35:56;25.30;1.00
11559;DHT22;5835;42.930;25.178;2023-09-19T09:38:26;25.50;1.00
11559;DHT22;5835;42.930;25.178;2023-09-19T09:40:55;25.80;1.00
11559;DHT22;5835;42.930;25.178;2023-09-19T09:43:32;25.90;1.00
11559;DHT22;5835;42.930;25.178;2023-09-19T09:46:11;25.70;1.00
11559;DHT22;5835;42.930;25.178;2023-09-19T09:48:59;25.80;1.00
11559;DHT22;5835;42.930;25.178;2023-09-19T09:51:46;25.90;1.00
11559;DHT22;5835;42.930;25.178;2023-09-19T09:54:34;26.00;1.00
11559;DHT22;5835;42.930;25.178;2023-09-19T09:57:04;26.20;1.00
11559;DHT22;5835;42.930;25.178;2023-09-19T09:59:51;27.10;1.00
11559;DHT22;5835;42.930;25.178;2023-09-19T10:02:20;27.50;1.00
11559;DHT22;5835;42.930;25.178;2023-09-19T10:04:54;27.70;99.90
11559;DHT22;5835;42.930;25.178;2023-09-19T10:07:41;27.00;99.90
11559;DHT22;5835;42.930;25.178;2023-09-19T10:10:15;26.90;99.90
11559;DHT22;5835;42.930;25.178;2023-09-19T10:13:03;26.90;99.90
11559;DHT22;5835;42.930;25.178;2023-09-19T10:15:34;27.00;99.90
11559;DHT22;5835;42.930;25.178;2023-09-19T10:18:04;26.60;99.90
11559;DHT22;5835;42.930;25.178;2023-09-19T10:20:32;26.30;99.90
11559;DHT22;5835;42.930;25.178;2023-09-19T10:23:05;26.10;99.90
11559;DHT22;5835;42.930;25.178;2023-09-19T10:25:37;26.30;99.90
11559;DHT22;5835;42.930;25.178;2023-09-19T10:28:06;26.40;99.90
11559;DHT22;5835;42.930;25.178;2023-09-19T10:30:38;26.30;99.90
11559;DHT22;5835;42.930;25.178;2023-09-19T10:33:11;26.10;99.90
11559;DHT22;5835;42.930;25.178;2023-09-19T10:35:39;26.00;99.90
11559;DHT22;5835;42.930;25.178;2023-09-19T10:38:07;26.20;99.90
11559;DHT22;5835;42.930;25.178;2023-09-19T10:40:39;26.30;99.90
11559;DHT22;5835;42.930;25.178;2023-09-19T10:43:12;25.90;99.90
11559;DHT22;5835;42.930;25.178;2023-09-19T10:45:40;25.60;99.90
11559;DHT22;5835;42.930;25.178;2023-09-19T10:48:08;25.60;99.90
11559;DHT22;5835;42.930;25.178;2023-09-19T10:50:41;26.30;99.90
11559;DHT22;5835;42.930;25.178;2023-09-19T10:53:12;25.70;99.90
11559;DHT22;5835;42.930;25.178;2023-09-19T10:55:40;25.60;99.90
11559;DHT22;5835;42.930;25.178;2023-09-19T10:58:07;25.80;99.90
11559;DHT22;5835;42.930;25.178;2023-09-19T11:00:52;25.90;99.90
11559;DHT22;5835;42.930;25.178;2023-09-19T11:03:20;26.50;99.90
11559;DHT22;5835;42.930;25.178;2023-09-19T11:06:03;26.70;99.90
11559;DHT22;5835;42.930;25.178;2023-09-19T11:08:57;26.80;99.90
11559;DHT22;5835;42.930;25.178;2023-09-19T11:11:41;26.90;99.90
11559;DHT22;5835;42.930;25.178;2023-09-19T11:14:17;27.20;99.90
11559;DHT22;5835;42.930;25.178;2023-09-19T11:20:23;28.00;99.90
11559;DHT22;5835;42.930;25.178;2023-09-19T11:23:28;27.90;99.90
11559;DHT22;5835;42.930;25.178;2023-09-19T11:25:56;27.10;99.90
11559;DHT22;5835;42.930;25.178;2023-09-19T11:28:31;27.60;99.90
11559;DHT22;5835;42.930;25.178;2023-09-19T11:30:57;26.70;99.90
11559;DHT22;5835;42.930;25.178;2023-09-19T11:33:26;26.80;99.90
11559;DHT22;5835;42.930;25.178;2023-09-19T11:36:03;27.30;99.90
11559;DHT22;5835;42.930;25.178;2023-09-19T11:38:58;27.90;99.90
11559;DHT22;5835;42.930;25.178;2023-09-19T11:41:37;27.90;99.90
11559;DHT22;5835;42.930;25.178;2023-09-19T11:44:33;27.90;99.90
11559;DHT22;5835;42.930;25.178;2023-09-19T11:47:02;27.90;99.90
11559;DHT22;5835;42.930;25.178;2023-09-19T11:49:30;27.50;99.90
11559;DHT22;5835;42.930;25.178;2023-09-19T11:52:00;27.00;99.90
11559;DHT22;5835;42.930;25.178;2023-09-19T11:54:31;27.00;99.90
11559;DHT22;5835;42.930;25.178;2023-09-19T11:56:59;26.90;99.90
11559;DHT22;5835;42.930;25.178;2023-09-19T11:59:28;26.90;99.90
11559;DHT22;5835;42.930;25.178;2023-09-19T12:01:57;27.20;99.90
11559;DHT22;5835;42.930;25.178;2023-09-19T12:04:35;27.10;99.90
11559;DHT22;5835;42.930;25.178;2023-09-19T12:07:05;27.00;99.90
11559;DHT22;5835;42.930;25.178;2023-09-19T12:09:39;27.20;99.90
11559;DHT22;5835;42.930;25.178;2023-09-19T12:12:07;26.90;99.90
11559;DHT22;5835;42.930;25.178;2023-09-19T12:14:35;27.10;99.90
11559;DHT22;5835;42.930;25.178;2023-09-19T12:17:03;27.30;99.90
11559;DHT22;5835;42.930;25.178;2023-09-19T12:19:30;27.00;99.90
11559;DHT22;5835;42.930;25.178;2023-09-19T12:21:59;27.10;99.90
11559;DHT22;5835;42.930;25.178;2023-09-19T12:24:32;27.30;99.90
11559;DHT22;5835;42.930;25.178;2023-09-19T12:27:02;27.40;99.90
11559;DHT22;5835;42.930;25.178;2023-09-19T12:29:32;27.50;99.90
11559;DHT22;5835;42.930;25.178;2023-09-19T12:32:00;27.40;99.90
11559;DHT22;5835;42.930;25.178;2023-09-19T12:34:31;27.50;99.90
11559;DHT22;5835;42.930;25.178;2023-09-19T12:37:08;27.20;99.90
11559;DHT22;5835;42.930;25.178;2023-09-19T12:39:43;27.30;99.90
11559;DHT22;5835;42.930;25.178;2023-09-19T12:42:15;27.90;99.90
11559;DHT22;5835;42.930;25.178;2023-09-19T12:44:44;27.60;99.90
11559;DHT22;5835;42.930;25.178;2023-09-19T12:47:14;27.20;99.90
11559;DHT22;5835;42.930;25.178;2023-09-19T12:50:10;27.60;99.90
11559;DHT22;5835;42.930;25.178;2023-09-19T12:52:44;27.70;99.90
11559;DHT22;5835;42.930;25.178;2023-09-19T12:55:25;27.80;99.90
11559;DHT22;5835;42.930;25.178;2023-09-19T12:57:59;27.80;99.90
11559;DHT22;5835;42.930;25.178;2023-09-19T13:00:35;27.60;99.90
11559;DHT22;5835;42.930;25.178;2023-09-19T13:03:18;27.60;99.90
11559;DHT22;5835;42.930;25.178;2023-09-19T13:05:54;27.70;99.90
11559;DHT22;5835;42.930;25.178;2023-09-19T13:08:26;28.00;99.90
11559;DHT22;5835;42.930;25.178;2023-09-19T13:11:09;28.10;99.90
11559;DHT22;5835;42.930;25.178;2023-09-19T13:13:40;28.00;99.90
11559;DHT22;5835;42.930;25.178;2023-09-19T13:16:07;27.90;99.90
11559;DHT22;5835;42.930;25.178;2023-09-19T13:18:42;27.70;99.90
11559;DHT22;5835;42.930;25.178;2023-09-19T13:21:12;27.30;99.90
11559;DHT22;5835;42.930;25.178;2023-09-19T13:23:42;27.60;99.90
11559;DHT22;5835;42.930;25.178;2023-09-19T13:26:11;27.50;99.90
11559;DHT22;5835;42.930;25.178;2023-09-19T13:28:38;27.40;99.90
11559;DHT22;5835;42.930;25.178;2023-09-19T13:31:05;27.70;99.90
11559;DHT22;5835;42.930;25.178;2023-09-19T13:33:34;28.00;99.90
11559;DHT22;5835;42.930;25.178;2023-09-19T13:36:02;28.30;99.90
11559;DHT22;5835;42.930;25.178;2023-09-19T13:38:30;28.50;99.90
11559;DHT22;5835;42.930;25.178;2023-09-19T13:40:59;29.10;99.90
11559;DHT22;5835;42.930;25.178;2023-09-19T13:43:28;29.00;99.90
11559;DHT22;5835;42.930;25.178;2023-09-19T13:45:55;29.20;99.90
11559;DHT22;5835;42.930;25.178;2023-09-19T13:48:23;29.80;99.90
11559;DHT22;5835;42.930;25.178;2023-09-19T13:50:51;29.60;99.90
11559;DHT22;5835;42.930;25.178;2023-09-19T13:53:18;29.60;99.90
11559;DHT22;5835;42.930;25.178;2023-09-19T13:55:45;30.00;99.90
11559;DHT22;5835;42.930;25.178;2023-09-19T13:58:13;30.10;99.90
11559;DHT22;5835;42.930;25.178;2023-09-19T14:00:40;30.60;99.90
11559;DHT22;5835;42.930;25.178;2023-09-19T14:03:08;30.70;99.90
11559;DHT22;5835;42.930;25.178;2023-09-19T14:05:37;30.40;99.90
11559;DHT22;5835;42.930;25.178;2023-09-19T14:08:04;30.50;99.90
11559;DHT22;5835;42.930;25.178;2023-09-19T14:10:31;31.10;99.90
11559;DHT22;5835;42.930;25.178;2023-09-19T14:12:58;31.40;99.90
11559;DHT22;5835;42.930;25.178;2023-09-19T14:15:25;30.40;99.90
11559;DHT22;5835;42.930;25.178;2023-09-19T14:17:57;30.20;99.90
11559;DHT22;5835;42.930;25.178;2023-09-19T14:20:25;30.00;99.90
11559;DHT22;5835;42.930;25.178;2023-09-19T14:22:53;29.60;99.90
11559;DHT22;5835;42.930;25.178;2023-09-19T14:25:20;29.20;99.90
11559;DHT22;5835;42.930;25.178;2023-09-19T14:27:47;29.30;99.90
11559;DHT22;5835;42.930;25.178;2023-09-19T14:30:15;29.40;99.90
11559;DHT22;5835;42.930;25.178;2023-09-19T14:32:42;29.60;99.90
11559;DHT22;5835;42.930;25.178;2023-09-19T14:35:10;29.60;99.90
11559;DHT22;5835;42.930;25.178;2023-09-19T14:37:39;29.60;99.90
11559;DHT22;5835;42.930;25.178;2023-09-19T14:40:08;29.50;99.90
11559;DHT22;5835;42.930;25.178;2023-09-19T14:42:38;29.40;99.90
11559;DHT22;5835;42.930;25.178;2023-09-19T14:45:06;29.50;99.90
11559;DHT22;5835;42.930;25.178;2023-09-19T14:47:33;29.40;99.90
11559;DHT22;5835;42.930;25.178;2023-09-19T14:50:01;29.40;99.90
11559;DHT22;5835;42.930;25.178;2023-09-19T14:52:29;29.20;99.90
11559;DHT22;5835;42.930;25.178;2023-09-19T14:54:56;29.30;99.90
11559;DHT22;5835;42.930;25.178;2023-09-19T14:57:23;29.20;99.90
11559;DHT22;5835;42.930;25.178;2023-09-19T14:59:50;29.10;99.90
11559;DHT22;5835;42.930;25.178;2023-09-19T15:02:17;28.90;99.90
11559;DHT22;5835;42.930;25.178;2023-09-19T15:04:45;29.30;99.90
11559;DHT22;5835;42.930;25.178;2023-09-19T15:07:13;29.40;99.90
11559;DHT22;5835;42.930;25.178;2023-09-19T15:09:42;28.60;99.90
11559;DHT22;5835;42.930;25.178;2023-09-19T15:12:09;27.90;99.90
11559;DHT22;5835;42.930;25.178;2023-09-19T15:14:37;27.50;99.90
11559;DHT22;5835;42.930;25.178;2023-09-19T15:17:04;27.50;99.90
11559;DHT22;5835;42.930;25.178;2023-09-19T15:19:31;27.10;99.90
11559;DHT22;5835;42.930;25.178;2023-09-19T15:21:58;27.30;99.90
11559;DHT22;5835;42.930;25.178;2023-09-19T15:24:26;26.80;99.90
11559;DHT22;5835;42.930;25.178;2023-09-19T15:26:54;26.80;99.90
11559;DHT22;5835;42.930;25.178;2023-09-19T15:29:22;26.60;99.90
11559;DHT22;5835;42.930;25.178;2023-09-19T15:31:48;26.60;99.90
11559;DHT22;5835;42.930;25.178;2023-09-19T15:34:16;26.30;99.90
11559;DHT22;5835;42.930;25.178;2023-09-19T15:36:43;26.40;99.90
11559;DHT22;5835;42.930;25.178;2023-09-19T15:39:12;26.40;99.90
11559;DHT22;5835;42.930;25.178;2023-09-19T15:41:44;26.40;99.90
11559;DHT22;5835;42.930;25.178;2023-09-19T15:44:13;26.60;99.90
11559;DHT22;5835;42.930;25.178;2023-09-19T15:46:42;26.10;99.90
11559;DHT22;5835;42.930;25.178;2023-09-19T15:49:09;26.00;99.90
11559;DHT22;5835;42.930;25.178;2023-09-19T15:51:36;26.00;99.90
11559;DHT22;5835;42.930;25.178;2023-09-19T15:54:08;26.10;99.90